sensor_id;sensor_type;location;lat;lon;timestamp;pressure;altitude;pressure_sealevel;temperature;humidity
37132;BME280;23035;50.032;21.978;2022-10-22T00:01:36;66636.06;;;13.93;62.11
37132;BME280;23035;50.032;21.978;2022-10-22T00:06:42;66607.13;;;13.68;62.37
37132;BME280;23035;50.032;21.978;2022-10-22T00:11:46;66669.94;;;14.25;61.04
37132;BME280;23035;50.032;21.978;2022-10-22T00:16:50;66582.91;;;13.45;62.41
37132;BME280;23035;50.032;21.978;2022-10-22T00:22:00;66565.09;;;13.26;63.99
37132;BME280;23035;50.032;21.978;2022-10-22T00:27:09;66608.66;;;13.67;61.84
37132;BME280;23035;50.032;21.978;2022-10-22T00:32:13;66609.75;;;13.68;62.73
37132;BME280;23035;50.032;21.978;2022-10-22T00:37:19;66606.06;;;13.67;63.24
37132;BME280;23035;50.032;21.978;2022-10-22T00:42:25;66602.19;;;13.61;62.13
37132;BME280;23035;50.032;21.978;2022-10-22T00:47:32;66578.09;;;13.40;62.51
37132;BME280;23035;50.032;21.978;2022-10-22T00:52:39;66549.06;;;13.13;64.60
37132;BME280;23035;50.032;21.978;2022-10-22T00:57:45;66552.25;;;13.16;64.03
37132;BME280;23035;50.032;21.978;2022-10-22T01:02:50;66518.88;;;12.82;65.32
37132;BME280;23035;50.032;21.978;2022-10-22T01:07:56;66528.56;;;12.91;65.35
37132;BME280;23035;50.032;21.978;2022-10-22T01:13:07;66561.81;;;13.20;64.48
37132;BME280;23035;50.032;21.978;2022-10-22T01:18:16;66504.22;;;12.63;65.78
37132;BME280;23035;50.032;21.978;2022-10-22T01:29:00;66558.13;;;13.19;64.66
37132;BME280;23035;50.032;21.978;2022-10-22T01:34:06;66565.03;;;13.23;63.98
37132;BME280;23035;50.032;21.978;2022-10-22T01:39:11;66620.50;;;13.78;62.09
37132;BME280;23035;50.032;21.978;2022-10-22T01:44:26;66572.19;;;13.35;64.62
37132;BME280;23035;50.032;21.978;2022-10-22T01:49:40;66550.19;;;13.16;65.18
37132;BME280;23035;50.032;21.978;2022-10-22T01:54:52;66567.97;;;13.33;64.08
37132;BME280;23035;50.032;21.978;2022-10-22T02:00:05;66518.97;;;12.84;66.08
37132;BME280;23035;50.032;21.978;2022-10-22T02:05:13;66572.63;;;13.33;65.86
37132;BME280;23035;50.032;21.978;2022-10-22T02:10:20;66572.19;;;13.35;64.58
37132;BME280;23035;50.032;21.978;2022-10-22T02:15:27;66520.03;;;12.85;65.72
37132;BME280;23035;50.032;21.978;2022-10-22T02:20:34;66486.81;;;12.56;69.25
37132;BME280;23035;50.032;21.978;2022-10-22T02:25:41;66550.66;;;13.14;66.75
37132;BME280;23035;50.032;21.978;2022-10-22T02:30:51;66444.22;;;12.11;70.17
37132;BME280;23035;50.032;21.978;2022-10-22T02:35:57;66595.66;;;13.52;66.15
37132;BME280;23035;50.032;21.978;2022-10-22T02:41:03;66509.75;;;12.73;67.73
37132;BME280;23035;50.032;21.978;2022-10-22T02:46:09;66586.06;;;13.45;64.90
37132;BME280;23035;50.032;21.978;2022-10-22T02:51:13;66518.34;;;12.81;67.95
37132;BME280;23035;50.032;21.978;2022-10-22T02:56:21;66428.66;;;11.96;72.02
37132;BME280;23035;50.032;21.978;2022-10-22T03:01:26;66446.38;;;12.13;70.94
37132;BME280;23035;50.032;21.978;2022-10-22T03:06:31;66440.47;;;12.07;71.54
37132;BME280;23035;50.032;21.978;2022-10-22T03:11:36;66447.44;;;12.14;71.94
37132;BME280;23035;50.032;21.978;2022-10-22T03:16:41;66423.72;;;11.89;71.46
37132;BME280;23035;50.032;21.978;2022-10-22T03:21:48;66389.00;;;11.61;74.78
37132;BME280;23035;50.032;21.978;2022-10-22T03:26:53;66426.44;;;11.92;73.66
37132;BME280;23035;50.032;21.978;2022-10-22T03:31:59;66438.84;;;12.06;74.44
37132;BME280;23035;50.032;21.978;2022-10-22T03:37:04;66396.50;;;11.68;75.12
37132;BME280;23035;50.032;21.978;2022-10-22T03:42:08;66361.53;;;11.33;75.80
37132;BME280;23035;50.032;21.978;2022-10-22T03:47:14;66362.16;;;11.36;75.33
37132;BME280;23035;50.032;21.978;2022-10-22T03:52:18;66404.00;;;11.75;74.37
37132;BME280;23035;50.032;21.978;2022-10-22T03:57:22;66363.22;;;11.37;75.21
37132;BME280;23035;50.032;21.978;2022-10-22T04:02:28;66390.44;;;11.58;75.80
37132;BME280;23035;50.032;21.978;2022-10-22T04:07:32;66445.31;;;12.12;73.68
37132;BME280;23035;50.032;21.978;2022-10-22T04:12:36;66327.09;;;10.98;77.41
37132;BME280;23035;50.032;21.978;2022-10-22T04:17:42;66325.69;;;11.01;78.33
37132;BME280;23035;50.032;21.978;2022-10-22T04:22:46;66340.63;;;11.13;79.00
37132;BME280;23035;50.032;21.978;2022-10-22T04:27:50;66340.63;;;11.13;76.88
37132;BME280;23035;50.032;21.978;2022-10-22T04:32:55;66422.75;;;11.91;73.94
37132;BME280;23035;50.032;21.978;2022-10-22T04:37:59;66418.44;;;11.87;72.95
37132;BME280;23035;50.032;21.978;2022-10-22T04:43:03;66431.78;;;11.97;72.65
37132;BME280;23035;50.032;21.978;2022-10-22T04:48:09;66360.47;;;11.32;74.13
37132;BME280;23035;50.032;21.978;2022-10-22T04:53:13;66386.06;;;11.51;74.26
37132;BME280;23035;50.032;21.978;2022-10-22T04:58:19;66451.66;;;12.16;71.88
37132;BME280;23035;50.032;21.978;2022-10-22T05:03:25;66501.16;;;12.65;70.65
37132;BME280;23035;50.032;21.978;2022-10-22T05:08:30;66437.78;;;12.05;72.67
37132;BME280;23035;50.032;21.978;2022-10-22T05:13:35;66399.56;;;11.66;76.72
37132;BME280;23035;50.032;21.978;2022-10-22T05:18:43;66427.03;;;11.95;74.68
37132;BME280;23035;50.032;21.978;2022-10-22T05:23:49;66472.13;;;12.38;71.38
37132;BME280;23035;50.032;21.978;2022-10-22T05:28:53;66446.97;;;12.16;73.20
37132;BME280;23035;50.032;21.978;2022-10-22T05:33:58;66380.88;;;11.51;75.57
37132;BME280;23035;50.032;21.978;2022-10-22T05:39:03;66365.75;;;11.34;79.14
37132;BME280;23035;50.032;21.978;2022-10-22T05:44:10;66388.81;;;11.56;77.71
37132;BME280;23035;50.032;21.978;2022-10-22T05:49:18;66479.13;;;12.44;74.12
37132;BME280;23035;50.032;21.978;2022-10-22T05:54:22;66477.97;;;12.41;71.39
37132;BME280;23035;50.032;21.978;2022-10-22T05:59:26;66548.91;;;13.08;69.40
37132;BME280;23035;50.032;21.978;2022-10-22T06:04:32;66438.31;;;12.05;73.02
37132;BME280;23035;50.032;21.978;2022-10-22T06:09:36;66495.31;;;12.62;72.19
37132;BME280;23035;50.032;21.978;2022-10-22T06:14:40;66446.53;;;12.18;74.70
37132;BME280;23035;50.032;21.978;2022-10-22T06:19:45;66439.38;;;12.06;75.24
37132;BME280;23035;50.032;21.978;2022-10-22T06:24:49;66439.31;;;12.04;75.85
37132;BME280;23035;50.032;21.978;2022-10-22T06:29:54;66441.63;;;12.11;76.75
37132;BME280;23035;50.032;21.978;2022-10-22T06:35:00;66505.38;;;12.67;74.30
37132;BME280;23035;50.032;21.978;2022-10-22T06:40:05;66515.13;;;12.78;71.63
37132;BME280;23035;50.032;21.978;2022-10-22T06:45:10;66470.47;;;12.33;74.81
37132;BME280;23035;50.032;21.978;2022-10-22T06:50:16;66525.25;;;12.85;73.61
37132;BME280;23035;50.032;21.978;2022-10-22T06:55:20;66520.66;;;12.88;71.40
37132;BME280;23035;50.032;21.978;2022-10-22T07:00:24;66556.50;;;13.17;72.29
37132;BME280;23035;50.032;21.978;2022-10-22T07:05:29;66599.53;;;13.58;70.73
37132;BME280;23035;50.032;21.978;2022-10-22T07:10:36;66594.53;;;13.48;70.44
37132;BME280;23035;50.032;21.978;2022-10-22T07:15:40;66541.44;;;13.03;73.08
37132;BME280;23035;50.032;21.978;2022-10-22T07:20:46;66651.59;;;14.05;69.87
37132;BME280;23035;50.032;21.978;2022-10-22T07:25:50;66723.25;;;14.75;67.45
37132;BME280;23035;50.032;21.978;2022-10-22T07:30:57;66691.47;;;14.45;66.51
37132;BME280;23035;50.032;21.978;2022-10-22T07:36:05;66725.38;;;14.77;65.22
37132;BME280;23035;50.032;21.978;2022-10-22T07:41:09;66643.00;;;13.97;67.14
37132;BME280;23035;50.032;21.978;2022-10-22T07:46:13;66598.34;;;13.55;71.20
37132;BME280;23035;50.032;21.978;2022-10-22T07:51:18;66611.88;;;13.70;71.40
37132;BME280;23035;50.032;21.978;2022-10-22T07:56:22;66619.41;;;13.77;69.59
37132;BME280;23035;50.032;21.978;2022-10-22T08:01:26;66655.97;;;14.12;69.34
37132;BME280;23035;50.032;21.978;2022-10-22T08:06:31;66685.38;;;14.34;67.54
37132;BME280;23035;50.032;21.978;2022-10-22T08:11:37;66701.69;;;14.55;66.63
37132;BME280;23035;50.032;21.978;2022-10-22T08:16:41;66761.91;;;15.09;64.81
37132;BME280;23035;50.032;21.978;2022-10-22T08:21:47;66802.34;;;15.50;62.80
37132;BME280;23035;50.032;21.978;2022-10-22T08:26:51;66685.94;;;14.35;67.15
37132;BME280;23035;50.032;21.978;2022-10-22T08:31:55;66780.75;;;15.27;64.45
37132;BME280;23035;50.032;21.978;2022-10-22T08:37:01;66791.03;;;15.39;63.84
37132;BME280;23035;50.032;21.978;2022-10-22T08:42:28;66849.22;;;15.94;62.26
37132;BME280;23035;50.032;21.978;2022-10-22T08:53:10;66838.44;;;15.84;62.06
37132;BME280;23035;50.032;21.978;2022-10-22T08:58:19;66899.84;;;16.42;59.02
37132;BME280;23035;50.032;21.978;2022-10-22T09:03:37;66880.38;;;16.21;60.80
37132;BME280;23035;50.032;21.978;2022-10-22T09:08:45;66860.38;;;16.00;61.75
37132;BME280;23035;50.032;21.978;2022-10-22T09:13:50;66914.44;;;16.58;59.62
37132;BME280;23035;50.032;21.978;2022-10-22T09:19:05;66978.47;;;17.14;58.11
37132;BME280;23035;50.032;21.978;2022-10-22T09:24:27;66993.00;;;17.28;56.56
37132;BME280;23035;50.032;21.978;2022-10-22T09:29:34;66982.28;;;17.20;56.58
37132;BME280;23035;50.032;21.978;2022-10-22T09:34:39;66988.84;;;17.29;56.31
37132;BME280;23035;50.032;21.978;2022-10-22T09:39:46;66995.78;;;17.33;56.26
37132;BME280;23035;50.032;21.978;2022-10-22T09:44:52;66961.81;;;17.01;56.88
37132;BME280;23035;50.032;21.978;2022-10-22T09:50:04;66923.00;;;16.64;58.70
37132;BME280;23035;50.032;21.978;2022-10-22T09:55:14;66939.19;;;16.79;58.95
37132;BME280;23035;50.032;21.978;2022-10-22T10:00:19;66994.63;;;17.29;56.14
37132;BME280;23035;50.032;21.978;2022-10-22T10:05:28;66900.38;;;16.43;59.58
37132;BME280;23035;50.032;21.978;2022-10-22T10:10:40;67003.25;;;17.37;57.01
37132;BME280;23035;50.032;21.978;2022-10-22T10:15:50;66891.13;;;16.31;59.25
37132;BME280;23035;50.032;21.978;2022-10-22T10:21:05;66958.72;;;17.03;57.55
37132;BME280;23035;50.032;21.978;2022-10-22T10:26:18;66951.50;;;16.88;57.41
37132;BME280;23035;50.032;21.978;2022-10-22T10:31:34;66984.00;;;17.24;57.03
37132;BME280;23035;50.032;21.978;2022-10-22T10:36:50;67066.50;;;18.02;54.19
37132;BME280;23035;50.032;21.978;2022-10-22T10:42:02;66986.00;;;17.21;57.02
37132;BME280;23035;50.032;21.978;2022-10-22T10:47:19;66997.41;;;17.34;56.70
37132;BME280;23035;50.032;21.978;2022-10-22T10:52:33;67031.28;;;17.64;54.20
37132;BME280;23035;50.032;21.978;2022-10-22T10:57:47;67069.53;;;17.97;52.37
37132;BME280;23035;50.032;21.978;2022-10-22T11:08:39;66949.34;;;16.86;56.35
37132;BME280;23035;50.032;21.978;2022-10-22T11:13:52;66983.38;;;17.21;55.96
37132;BME280;23035;50.032;21.978;2022-10-22T11:19:02;66954.28;;;16.94;57.18
37132;BME280;23035;50.032;21.978;2022-10-22T11:24:12;67000.09;;;17.37;56.55
37132;BME280;23035;50.032;21.978;2022-10-22T11:29:24;67048.63;;;17.83;54.72
37132;BME280;23035;50.032;21.978;2022-10-22T11:34:39;66962.38;;;17.01;57.35
37132;BME280;23035;50.032;21.978;2022-10-22T11:39:50;66868.13;;;16.15;59.63
37132;BME280;23035;50.032;21.978;2022-10-22T11:45:00;66833.59;;;15.80;62.36
37132;BME280;23035;50.032;21.978;2022-10-22T11:50:19;66877.84;;;16.24;61.71
37132;BME280;23035;50.032;21.978;2022-10-22T11:55:33;66799.66;;;15.47;64.94
37132;BME280;23035;50.032;21.978;2022-10-22T12:00:48;66844.34;;;15.90;63.80
37132;BME280;23035;50.032;21.978;2022-10-22T12:06:05;66851.84;;;15.94;63.99
37132;BME280;23035;50.032;21.978;2022-10-22T12:11:22;66848.59;;;15.91;63.46
37132;BME280;23035;50.032;21.978;2022-10-22T12:16:34;66936.50;;;16.77;61.86
37132;BME280;23035;50.032;21.978;2022-10-22T12:22:00;66945.66;;;16.85;61.64
37132;BME280;23035;50.032;21.978;2022-10-22T12:27:17;66945.66;;;16.85;61.35
37132;BME280;23035;50.032;21.978;2022-10-22T12:32:32;66851.38;;;15.96;65.05
37132;BME280;23035;50.032;21.978;2022-10-22T12:37:37;66877.69;;;16.19;64.22
37132;BME280;23035;50.032;21.978;2022-10-22T12:42:47;66905.75;;;16.48;64.40
37132;BME280;23035;50.032;21.978;2022-10-22T12:47:57;66810.81;;;15.53;71.13
37132;BME280;23035;50.032;21.978;2022-10-22T12:53:02;66817.34;;;15.62;71.76
37132;BME280;23035;50.032;21.978;2022-10-22T12:58:10;66647.34;;;14.03;83.93
37132;BME280;23035;50.032;21.978;2022-10-22T13:03:26;66738.91;;;14.92;83.65
37132;BME280;23035;50.032;21.978;2022-10-22T13:08:33;66691.38;;;14.43;91.06
37132;BME280;23035;50.032;21.978;2022-10-22T13:13:42;66610.81;;;13.69;100.00
37132;BME280;23035;50.032;21.978;2022-10-22T13:18:49;66573.63;;;13.31;100.00
37132;BME280;23035;50.032;21.978;2022-10-22T13:23:58;66639.38;;;13.98;100.00
37132;BME280;23035;50.032;21.978;2022-10-22T13:29:09;66534.00;;;12.99;100.00
37132;BME280;23035;50.032;21.978;2022-10-22T13:34:19;66562.34;;;13.20;100.00
37132;BME280;23035;50.032;21.978;2022-10-22T13:39:23;66622.03;;;13.77;100.00
37132;BME280;23035;50.032;21.978;2022-10-22T13:44:28;66623.78;;;13.84;100.00
37132;BME280;23035;50.032;21.978;2022-10-22T13:49:34;66547.72;;;13.04;100.00
37132;BME280;23035;50.032;21.978;2022-10-22T13:54:38;66528.03;;;12.90;100.00
37132;BME280;23035;50.032;21.978;2022-10-22T13:59:42;66562.50;;;13.26;100.00
37132;BME280;23035;50.032;21.978;2022-10-22T14:04:48;66505.53;;;12.72;100.00
37132;BME280;23035;50.032;21.978;2022-10-22T14:09:52;66554.88;;;13.16;100.00
37132;BME280;23035;50.032;21.978;2022-10-22T14:14:56;66453.91;;;12.20;100.00
37132;BME280;23035;50.032;21.978;2022-10-22T14:20:02;66461.84;;;12.25;100.00
37132;BME280;23035;50.032;21.978;2022-10-22T14:25:08;66422.66;;;11.88;100.00
37132;BME280;23035;50.032;21.978;2022-10-22T14:30:16;66360.38;;;11.29;100.00
37132;BME280;23035;50.032;21.978;2022-10-22T14:35:22;66439.84;;;12.04;100.00
37132;BME280;23035;50.032;21.978;2022-10-22T14:40:26;66420.06;;;11.88;100.00
37132;BME280;23035;50.032;21.978;2022-10-22T14:45:30;66386.16;;;11.54;100.00
37132;BME280;23035;50.032;21.978;2022-10-22T14:50:36;66389.97;;;11.60;100.00
37132;BME280;23035;50.032;21.978;2022-10-22T14:55:40;66450.75;;;12.20;100.00
37132;BME280;23035;50.032;21.978;2022-10-22T15:00:45;66392.03;;;11.59;100.00
37132;BME280;23035;50.032;21.978;2022-10-22T15:05:51;66421.69;;;11.90;100.00
37132;BME280;23035;50.032;21.978;2022-10-22T15:10:59;66382.28;;;11.47;100.00
37132;BME280;23035;50.032;21.978;2022-10-22T15:16:05;66393.19;;;11.63;100.00
37132;BME280;23035;50.032;21.978;2022-10-22T15:21:14;66390.53;;;11.60;100.00
37132;BME280;23035;50.032;21.978;2022-10-22T15:26:19;66403.88;;;11.70;100.00
37132;BME280;23035;50.032;21.978;2022-10-22T15:31:41;66356.09;;;11.25;100.00
37132;BME280;23035;50.032;21.978;2022-10-22T15:36:47;66366.44;;;11.40;100.00
37132;BME280;23035;50.032;21.978;2022-10-22T15:41:52;66400.81;;;11.72;100.00
37132;BME280;23035;50.032;21.978;2022-10-22T15:46:56;66348.22;;;11.23;100.00
37132;BME280;23035;50.032;21.978;2022-10-22T15:52:03;66406.09;;;11.75;100.00
37132;BME280;23035;50.032;21.978;2022-10-22T15:57:07;66409.75;;;11.76;100.00
37132;BME280;23035;50.032;21.978;2022-10-22T16:02:12;66386.69;;;11.54;100.00
37132;BME280;23035;50.032;21.978;2022-10-22T16:07:18;66386.22;;;11.56;100.00
37132;BME280;23035;50.032;21.978;2022-10-22T16:12:27;66323.81;;;10.92;100.00
37132;BME280;23035;50.032;21.978;2022-10-22T16:17:31;66347.56;;;11.19;100.00
37132;BME280;23035;50.032;21.978;2022-10-22T16:22:37;66293.94;;;10.69;100.00
37132;BME280;23035;50.032;21.978;2022-10-22T16:27:41;66334.69;;;11.07;100.00
37132;BME280;23035;50.032;21.978;2022-10-22T16:32:45;66384.06;;;11.54;100.00
37132;BME280;23035;50.032;21.978;2022-10-22T16:37:50;66406.53;;;11.73;100.00
37132;BME280;23035;50.032;21.978;2022-10-22T16:42:54;66413.53;;;11.80;100.00
37132;BME280;23035;50.032;21.978;2022-10-22T16:47:58;66379.16;;;11.47;100.00
37132;BME280;23035;50.032;21.978;2022-10-22T16:53:04;66380.22;;;11.48;100.00
37132;BME280;23035;50.032;21.978;2022-10-22T16:58:08;66414.63;;;11.81;100.00
37132;BME280;23035;50.032;21.978;2022-10-22T17:03:12;66365.75;;;11.34;100.00
37132;BME280;23035;50.032;21.978;2022-10-22T17:08:18;66439.91;;;12.07;100.00
37132;BME280;23035;50.032;21.978;2022-10-22T17:13:22;66391.50;;;11.59;100.00
37132;BME280;23035;50.032;21.978;2022-10-22T17:18:26;66407.69;;;11.76;100.00
37132;BME280;23035;50.032;21.978;2022-10-22T17:23:31;66452.81;;;12.19;100.00
37132;BME280;23035;50.032;21.978;2022-10-22T17:28:35;66452.19;;;12.16;100.00
37132;BME280;23035;50.032;21.978;2022-10-22T17:33:39;66304.13;;;10.78;100.00
37132;BME280;23035;50.032;21.978;2022-10-22T17:38:47;66350.97;;;11.28;100.00
37132;BME280;23035;50.032;21.978;2022-10-22T17:43:52;66351.88;;;11.24;100.00
37132;BME280;23035;50.032;21.978;2022-10-22T17:48:59;66372.16;;;11.40;100.00
37132;BME280;23035;50.032;21.978;2022-10-22T17:54:05;66367.97;;;11.39;100.00
37132;BME280;23035;50.032;21.978;2022-10-22T17:59:13;66317.44;;;10.88;100.00
37132;BME280;23035;50.032;21.978;2022-10-22T18:04:19;66239.13;;;10.14;100.00
37132;BME280;23035;50.032;21.978;2022-10-22T18:09:25;66305.56;;;10.75;100.00
37132;BME280;23035;50.032;21.978;2022-10-22T18:14:29;66305.38;;;10.84;100.00
37132;BME280;23035;50.032;21.978;2022-10-22T18:19:33;66380.75;;;11.48;100.00
37132;BME280;23035;50.032;21.978;2022-10-22T18:24:38;66335.25;;;11.08;100.00
37132;BME280;23035;50.032;21.978;2022-10-22T18:29:43;66324.59;;;11.00;100.00
37132;BME280;23035;50.032;21.978;2022-10-22T18:34:47;66315.91;;;10.89;100.00
37132;BME280;23035;50.032;21.978;2022-10-22T18:39:52;66378.00;;;11.43;100.00
37132;BME280;23035;50.032;21.978;2022-10-22T18:44:56;66325.03;;;10.98;100.00
37132;BME280;23035;50.032;21.978;2022-10-22T18:50:00;66298.22;;;10.73;100.00
37132;BME280;23035;50.032;21.978;2022-10-22T18:55:06;66322.91;;;10.96;100.00
37132;BME280;23035;50.032;21.978;2022-10-22T19:00:12;66298.66;;;10.71;100.00
37132;BME280;23035;50.032;21.978;2022-10-22T19:05:16;66271.31;;;10.45;100.00
37132;BME280;23035;50.032;21.978;2022-10-22T19:10:21;66260.88;;;10.42;100.00
37132;BME280;23035;50.032;21.978;2022-10-22T19:15:25;66328.09;;;10.96;100.00
37132;BME280;23035;50.032;21.978;2022-10-22T19:20:35;66305.19;;;10.79;100.00
37132;BME280;23035;50.032;21.978;2022-10-22T19:25:40;66279.47;;;10.55;100.00
37132;BME280;23035;50.032;21.978;2022-10-22T19:30:44;66274.00;;;10.47;100.00
37132;BME280;23035;50.032;21.978;2022-10-22T19:35:48;66310.50;;;10.82;100.00
37132;BME280;23035;50.032;21.978;2022-10-22T19:40:55;66402.78;;;11.69;100.00
37132;BME280;23035;50.032;21.978;2022-10-22T19:45:58;66329.88;;;11.03;100.00
37132;BME280;23035;50.032;21.978;2022-10-22T19:51:07;66369.50;;;11.38;100.00
37132;BME280;23035;50.032;21.978;2022-10-22T19:56:16;66280.00;;;10.55;100.00
37132;BME280;23035;50.032;21.978;2022-10-22T20:01:20;66336.31;;;11.09;100.00
37132;BME280;23035;50.032;21.978;2022-10-22T20:06:24;66367.44;;;11.38;100.00
37132;BME280;23035;50.032;21.978;2022-10-22T20:11:29;66351.88;;;11.24;100.00
37132;BME280;23035;50.032;21.978;2022-10-22T20:16:33;66322.28;;;10.93;100.00
37132;BME280;23035;50.032;21.978;2022-10-22T20:21:37;66374.88;;;11.43;100.00
37132;BME280;23035;50.032;21.978;2022-10-22T20:26:45;66435.63;;;12.03;100.00
37132;BME280;23035;50.032;21.978;2022-10-22T20:31:49;66378.00;;;11.43;100.00
37132;BME280;23035;50.032;21.978;2022-10-22T20:36:53;66436.63;;;12.01;100.00
37132;BME280;23035;50.032;21.978;2022-10-22T20:41:58;66287.31;;;10.57;100.00
37132;BME280;23035;50.032;21.978;2022-10-22T20:47:02;66341.16;;;11.13;100.00
37132;BME280;23035;50.032;21.978;2022-10-22T20:52:06;66415.69;;;11.82;100.00
37132;BME280;23035;50.032;21.978;2022-10-22T20:57:12;66451.13;;;12.15;100.00
37132;BME280;23035;50.032;21.978;2022-10-22T21:02:16;66414.16;;;11.83;100.00
37132;BME280;23035;50.032;21.978;2022-10-22T21:07:20;66495.09;;;12.54;100.00
37132;BME280;23035;50.032;21.978;2022-10-22T21:12:25;66421.13;;;11.89;100.00
37132;BME280;23035;50.032;21.978;2022-10-22T21:17:29;66370.03;;;11.38;100.00
37132;BME280;23035;50.032;21.978;2022-10-22T21:22:32;66464.53;;;12.28;100.00
37132;BME280;23035;50.032;21.978;2022-10-22T21:27:38;66418.91;;;11.85;100.00
37132;BME280;23035;50.032;21.978;2022-10-22T21:32:41;66436.16;;;12.03;100.00
37132;BME280;23035;50.032;21.978;2022-10-22T21:37:46;66433.94;;;11.99;100.00
37132;BME280;23035;50.032;21.978;2022-10-22T21:42:52;66396.50;;;11.68;100.00
37132;BME280;23035;50.032;21.978;2022-10-22T21:47:56;66462.94;;;12.26;100.00
37132;BME280;23035;50.032;21.978;2022-10-22T21:53:00;66472.59;;;12.35;100.00
37132;BME280;23035;50.032;21.978;2022-10-22T21:58:06;66400.16;;;11.69;100.00
37132;BME280;23035;50.032;21.978;2022-10-22T22:03:10;66371.19;;;11.42;100.00
37132;BME280;23035;50.032;21.978;2022-10-22T22:08:14;66368.97;;;11.37;100.00
37132;BME280;23035;50.032;21.978;2022-10-22T22:13:20;66380.22;;;11.48;100.00
37132;BME280;23035;50.032;21.978;2022-10-22T22:18:27;66294.47;;;10.69;100.00
37132;BME280;23035;50.032;21.978;2022-10-22T22:23:32;66322.81;;;10.94;100.00
37132;BME280;23035;50.032;21.978;2022-10-22T22:28:38;66330.31;;;11.01;100.00
37132;BME280;23035;50.032;21.978;2022-10-22T22:33:45;66314.22;;;10.85;100.00
37132;BME280;23035;50.032;21.978;2022-10-22T22:38:52;66396.34;;;11.63;100.00
37132;BME280;23035;50.032;21.978;2022-10-22T22:43:58;66346.50;;;11.18;100.00
37132;BME280;23035;50.032;21.978;2022-10-22T22:49:03;66330.88;;;11.01;100.00
37132;BME280;23035;50.032;21.978;2022-10-22T22:54:08;66365.22;;;11.34;100.00
37132;BME280;23035;50.032;21.978;2022-10-22T22:59:14;66388.75;;;11.54;100.00
37132;BME280;23035;50.032;21.978;2022-10-22T23:04:22;66307.34;;;10.81;100.00
37132;BME280;23035;50.032;21.978;2022-10-22T23:09:26;66332.63;;;11.08;100.00
37132;BME280;23035;50.032;21.978;2022-10-22T23:14:32;66349.56;;;11.16;100.00
37132;BME280;23035;50.032;21.978;2022-10-22T23:19:39;66429.09;;;11.94;100.00
37132;BME280;23035;50.032;21.978;2022-10-22T23:24:45;66384.53;;;11.52;100.00
37132;BME280;23035;50.032;21.978;2022-10-22T23:29:50;66353.50;;;11.25;100.00
37132;BME280;23035;50.032;21.978;2022-10-22T23:34:55;66336.22;;;11.06;100.00
37132;BME280;23035;50.032;21.978;2022-10-22T23:39:59;66369.22;;;11.45;100.00
37132;BME280;23035;50.032;21.978;2022-10-22T23:45:05;66359.84;;;11.29;100.00
37132;BME280;23035;50.032;21.978;2022-10-22T23:50:10;66344.91;;;11.17;100.00
37132;BME280;23035;50.032;21.978;2022-10-22T23:55:14;66398.94;;;11.63;100.00
